NY80 weather

Aurora Balloonport
South Wales, New York, United States

Public forecast

Using degrees Fahrenheit for public forecast. Weather courtesy of forecast.io.

METAR (pilot weather report)

Closest report is Buffalo Niagara International Airport, 16.3 nm (30.2 km) NNW. Retrieved 2019/06/20 04:54 UTC (15 minutes ago):

KBUF 200454Z 04005KT 10SM FEW050 BKN250 19/15 A2967 RMK AO2 SLP043 T01940150 402780150

TAF (pilot weather forecast)

Forecast is more than 12 hours old.

Closest forecast is Buffalo Niagara International Airport, 16.3 nm (30.2 km) NNW. Retrieved 2019/06/19 00:36 UTC (1 day ago):

TAF KBUF 192335Z 2000/2024 05005KT P6SM SCT070 BKN250 FM200300 VRB03KT P6SM BKN070 FM200700 VRB03KT P6SM BKN040 FM201100 06004KT 5SM -RA BR OVC020 FM201400 05006KT 2SM +RA BR OVC007 FM201800 05011KT 4SM RA BR OVC007